sensor_id;sensor_type;location;lat;lon;timestamp;pressure;altitude;pressure_sealevel;temperature;humidity
26043;BME280;13818;52.156;5.382;2023-03-23T00:01:45;99925.28;;;11.89;100.00
26043;BME280;13818;52.156;5.382;2023-03-23T00:04:14;99913.41;;;11.81;100.00
26043;BME280;13818;52.156;5.382;2023-03-23T00:06:41;99899.22;;;11.80;100.00
26043;BME280;13818;52.156;5.382;2023-03-23T00:09:10;99889.69;;;11.76;100.00
26043;BME280;13818;52.156;5.382;2023-03-23T00:11:38;99880.53;;;11.80;100.00
26043;BME280;13818;52.156;5.382;2023-03-23T00:14:05;99883.53;;;11.88;100.00
26043;BME280;13818;52.156;5.382;2023-03-23T00:16:39;99906.28;;;11.81;100.00
26043;BME280;13818;52.156;5.382;2023-03-23T00:19:07;99902.72;;;11.81;100.00
26043;BME280;13818;52.156;5.382;2023-03-23T00:21:36;99906.28;;;11.81;100.00
26043;BME280;13818;52.156;5.382;2023-03-23T00:24:05;99905.84;;;11.87;100.00
26043;BME280;13818;52.156;5.382;2023-03-23T00:26:34;99896.88;;;11.88;100.00
26043;BME280;13818;52.156;5.382;2023-03-23T00:29:04;99902.69;;;11.95;100.00
26043;BME280;13818;52.156;5.382;2023-03-23T00:31:30;99890.47;;;11.91;100.00
26043;BME280;13818;52.156;5.382;2023-03-23T00:33:58;99883.63;;;11.87;100.00
26043;BME280;13818;52.156;5.382;2023-03-23T00:36:26;99885.34;;;11.88;100.00
26043;BME280;13818;52.156;5.382;2023-03-23T00:38:53;99892.06;;;11.94;100.00
26043;BME280;13818;52.156;5.382;2023-03-23T00:41:23;99883.63;;;11.87;100.00
26043;BME280;13818;52.156;5.382;2023-03-23T00:43:52;99881.38;;;11.81;100.00
26043;BME280;13818;52.156;5.382;2023-03-23T00:46:20;99872.19;;;11.85;100.00
26043;BME280;13818;52.156;5.382;2023-03-23T00:48:47;99876.38;;;11.89;100.00
26043;BME280;13818;52.156;5.382;2023-03-23T00:51:16;99880.56;;;11.93;100.00
26043;BME280;13818;52.156;5.382;2023-03-23T00:53:43;99869.88;;;11.93;100.00
26043;BME280;13818;52.156;5.382;2023-03-23T00:56:11;99875.03;;;11.96;100.00
26043;BME280;13818;52.156;5.382;2023-03-23T00:58:37;99860.53;;;12.00;100.00
26043;BME280;13818;52.156;5.382;2023-03-23T01:01:05;99859.47;;;12.03;100.00
26043;BME280;13818;52.156;5.382;2023-03-23T01:03:33;99856.97;;;12.00;100.00
26043;BME280;13818;52.156;5.382;2023-03-23T01:06:04;99859.25;;;12.06;100.00
26043;BME280;13818;52.156;5.382;2023-03-23T01:08:33;99840.56;;;12.06;100.00
26043;BME280;13818;52.156;5.382;2023-03-23T01:11:03;99836.94;;;12.07;100.00
26043;BME280;13818;52.156;5.382;2023-03-23T01:13:30;99842.38;;;12.06;100.00
26043;BME280;13818;52.156;5.382;2023-03-23T01:15:57;99840.56;;;12.06;100.00
26043;BME280;13818;52.156;5.382;2023-03-23T01:18:24;99841.63;;;12.03;100.00
26043;BME280;13818;52.156;5.382;2023-03-23T01:20:54;99854.78;;;12.07;100.00
26043;BME280;13818;52.156;5.382;2023-03-23T01:23:21;99858.28;;;12.07;100.00
26043;BME280;13818;52.156;5.382;2023-03-23T01:25:48;99844.81;;;12.09;100.00
26043;BME280;13818;52.156;5.382;2023-03-23T01:28:15;99825.06;;;12.11;100.00
26043;BME280;13818;52.156;5.382;2023-03-23T01:30:41;99820.78;;;12.09;100.00
26043;BME280;13818;52.156;5.382;2023-03-23T01:33:14;99831.59;;;12.07;100.00
26043;BME280;13818;52.156;5.382;2023-03-23T01:35:40;99827.53;;;12.14;100.00
26043;BME280;13818;52.156;5.382;2023-03-23T01:38:08;99820.47;;;12.13;100.00
26043;BME280;13818;52.156;5.382;2023-03-23T01:40:35;99824.00;;;12.14;100.00
26043;BME280;13818;52.156;5.382;2023-03-23T01:43:01;99813.22;;;12.15;100.00
26043;BME280;13818;52.156;5.382;2023-03-23T01:45:31;99806.16;;;12.14;100.00
26043;BME280;13818;52.156;5.382;2023-03-23T01:48:06;99804.03;;;12.19;100.00
26043;BME280;13818;52.156;5.382;2023-03-23T01:50:37;99816.84;;;12.14;100.00
26043;BME280;13818;52.156;5.382;2023-03-23T01:53:09;99812.78;;;12.21;100.00
26043;BME280;13818;52.156;5.382;2023-03-23T01:55:38;99810.22;;;12.20;100.00
26043;BME280;13818;52.156;5.382;2023-03-23T01:58:06;99807.88;;;12.15;100.00
26043;BME280;13818;52.156;5.382;2023-03-23T02:00:33;99815.56;;;12.20;100.00
26043;BME280;13818;52.156;5.382;2023-03-23T02:03:00;99805.94;;;12.17;100.00
26043;BME280;13818;52.156;5.382;2023-03-23T02:05:30;99795.25;;;12.17;100.00
26043;BME280;13818;52.156;5.382;2023-03-23T02:08:00;99810.09;;;12.21;100.00
26043;BME280;13818;52.156;5.382;2023-03-23T02:10:31;99807.22;;;12.25;100.00
26043;BME280;13818;52.156;5.382;2023-03-23T02:12:57;99804.56;;;12.25;100.00
26043;BME280;13818;52.156;5.382;2023-03-23T02:15:25;99804.22;;;12.16;100.00
26043;BME280;13818;52.156;5.382;2023-03-23T02:17:55;99795.16;;;12.19;100.00
26043;BME280;13818;52.156;5.382;2023-03-23T02:20:52;99799.53;;;12.20;100.00
26043;BME280;13818;52.156;5.382;2023-03-23T02:23:37;99796.66;;;12.23;100.00
26043;BME280;13818;52.156;5.382;2023-03-23T02:26:20;99797.72;;;12.20;100.00
26043;BME280;13818;52.156;5.382;2023-03-23T02:29:02;99791.94;;;12.14;100.00
26043;BME280;13818;52.156;5.382;2023-03-23T02:31:45;99804.03;;;12.19;100.00
26043;BME280;13818;52.156;5.382;2023-03-23T02:34:17;99796.75;;;12.21;100.00
26043;BME280;13818;52.156;5.382;2023-03-23T02:36:47;99797.63;;;12.22;100.00
26043;BME280;13818;52.156;5.382;2023-03-23T02:39:19;99800.59;;;12.17;100.00
26043;BME280;13818;52.156;5.382;2023-03-23T02:41:49;99797.50;;;12.24;100.00
26043;BME280;13818;52.156;5.382;2023-03-23T02:44:19;99798.25;;;12.26;100.00
26043;BME280;13818;52.156;5.382;2023-03-23T02:46:46;99799.41;;;12.21;100.00
26043;BME280;13818;52.156;5.382;2023-03-23T02:49:16;99798.47;;;12.23;100.00
26043;BME280;13818;52.156;5.382;2023-03-23T02:51:46;99792.38;;;12.20;100.00
26043;BME280;13818;52.156;5.382;2023-03-23T02:54:15;99798.47;;;12.23;100.00
26043;BME280;13818;52.156;5.382;2023-03-23T02:56:43;99795.06;;;12.20;100.00
26043;BME280;13818;52.156;5.382;2023-03-23T02:59:10;99800.19;;;12.24;100.00
26043;BME280;13818;52.156;5.382;2023-03-23T03:02:04;99788.31;;;12.28;100.00
26043;BME280;13818;52.156;5.382;2023-03-23T03:04:34;99790.03;;;12.29;100.00
26043;BME280;13818;52.156;5.382;2023-03-23T03:07:25;99785.31;;;12.32;100.00
26043;BME280;13818;52.156;5.382;2023-03-23T03:09:57;99790.91;;;12.29;100.00
26043;BME280;13818;52.156;5.382;2023-03-23T03:12:32;99790.78;;;12.31;100.00
26043;BME280;13818;52.156;5.382;2023-03-23T03:15:08;99788.41;;;12.26;100.00
26043;BME280;13818;52.156;5.382;2023-03-23T03:17:37;99790.97;;;12.28;100.00
26043;BME280;13818;52.156;5.382;2023-03-23T03:20:08;99791.72;;;12.30;100.00
26043;BME280;13818;52.156;5.382;2023-03-23T03:22:38;99786.28;;;12.31;100.00
26043;BME280;13818;52.156;5.382;2023-03-23T03:25:08;99789.06;;;12.30;100.00
26043;BME280;13818;52.156;5.382;2023-03-23T03:27:34;99782.53;;;12.34;100.00
26043;BME280;13818;52.156;5.382;2023-03-23T03:30:03;99781.25;;;12.40;100.00
26043;BME280;13818;52.156;5.382;2023-03-23T03:32:37;99783.94;;;12.40;100.00
26043;BME280;13818;52.156;5.382;2023-03-23T03:35:07;99790.34;;;12.37;100.00
26043;BME280;13818;52.156;5.382;2023-03-23T03:37:35;99760.84;;;12.39;100.00
26043;BME280;13818;52.156;5.382;2023-03-23T03:40:04;99767.56;;;12.44;100.00
26043;BME280;13818;52.156;5.382;2023-03-23T03:42:37;99759.88;;;12.40;100.00
26043;BME280;13818;52.156;5.382;2023-03-23T03:45:04;99765.00;;;12.43;100.00
26043;BME280;13818;52.156;5.382;2023-03-23T03:47:32;99753.66;;;12.39;100.00
26043;BME280;13818;52.156;5.382;2023-03-23T03:49:58;99764.47;;;12.37;100.00
26043;BME280;13818;52.156;5.382;2023-03-23T03:52:27;99767.34;;;12.47;100.00
26043;BME280;13818;52.156;5.382;2023-03-23T03:54:54;99770.44;;;12.41;100.00
26043;BME280;13818;52.156;5.382;2023-03-23T03:57:21;99765.88;;;12.43;100.00
26043;BME280;13818;52.156;5.382;2023-03-23T03:59:47;99773.00;;;12.43;100.00
26043;BME280;13818;52.156;5.382;2023-03-23T04:02:14;99763.28;;;12.42;100.00
26043;BME280;13818;52.156;5.382;2023-03-23T04:04:45;99769.06;;;12.48;100.00
26043;BME280;13818;52.156;5.382;2023-03-23T04:07:12;99747.78;;;12.47;100.00
26043;BME280;13818;52.156;5.382;2023-03-23T04:09:40;99746.50;;;12.52;100.00
26043;BME280;13818;52.156;5.382;2023-03-23T04:12:07;99762.53;;;12.52;100.00
26043;BME280;13818;52.156;5.382;2023-03-23T04:14:33;99775.13;;;12.50;100.00
26043;BME280;13818;52.156;5.382;2023-03-23T04:17:00;99764.03;;;12.44;100.00
26043;BME280;13818;52.156;5.382;2023-03-23T04:19:28;99763.59;;;12.50;100.00
26043;BME280;13818;52.156;5.382;2023-03-23T04:21:58;99766.38;;;12.48;100.00
26043;BME280;13818;52.156;5.382;2023-03-23T04:24:25;99773.22;;;12.52;100.00
26043;BME280;13818;52.156;5.382;2023-03-23T04:26:54;99774.06;;;12.53;100.00
26043;BME280;13818;52.156;5.382;2023-03-23T04:29:21;99764.00;;;12.57;100.00
26043;BME280;13818;52.156;5.382;2023-03-23T04:31:47;99771.59;;;12.63;100.00
26043;BME280;13818;52.156;5.382;2023-03-23T04:34:16;99769.16;;;12.60;100.00
26043;BME280;13818;52.156;5.382;2023-03-23T04:36:43;99762.94;;;12.59;100.00
26043;BME280;13818;52.156;5.382;2023-03-23T04:39:11;99776.22;;;12.61;100.00
26043;BME280;13818;52.156;5.382;2023-03-23T04:41:38;99791.59;;;12.57;100.00
26043;BME280;13818;52.156;5.382;2023-03-23T04:44:07;99796.44;;;12.52;100.00
26043;BME280;13818;52.156;5.382;2023-03-23T04:46:34;99800.91;;;12.51;100.00
26043;BME280;13818;52.156;5.382;2023-03-23T04:49:00;99790.44;;;12.48;100.00
26043;BME280;13818;52.156;5.382;2023-03-23T04:51:28;99803.56;;;12.51;100.00
26043;BME280;13818;52.156;5.382;2023-03-23T04:53:56;99802.50;;;12.54;100.00
26043;BME280;13818;52.156;5.382;2023-03-23T04:56:23;99800.59;;;12.56;100.00
26043;BME280;13818;52.156;5.382;2023-03-23T04:58:49;99808.50;;;12.58;100.00
26043;BME280;13818;52.156;5.382;2023-03-23T05:01:18;99805.41;;;12.51;100.00
26043;BME280;13818;52.156;5.382;2023-03-23T05:03:44;99806.88;;;12.55;100.00
26043;BME280;13818;52.156;5.382;2023-03-23T05:06:11;99817.91;;;12.50;100.00
26043;BME280;13818;52.156;5.382;2023-03-23T05:08:37;99822.16;;;12.53;100.00
26043;BME280;13818;52.156;5.382;2023-03-23T05:11:05;99814.91;;;12.55;100.00
26043;BME280;13818;52.156;5.382;2023-03-23T05:13:32;99824.75;;;12.55;100.00
26043;BME280;13818;52.156;5.382;2023-03-23T05:16:03;99828.38;;;12.53;100.00
26043;BME280;13818;52.156;5.382;2023-03-23T05:18:31;99821.88;;;12.45;100.00
26043;BME280;13818;52.156;5.382;2023-03-23T05:20:59;99824.84;;;12.40;100.00
26043;BME280;13818;52.156;5.382;2023-03-23T05:23:26;99828.41;;;12.41;100.00
26043;BME280;13818;52.156;5.382;2023-03-23T05:25:53;99829.56;;;12.24;100.00
26043;BME280;13818;52.156;5.382;2023-03-23T05:28:20;99835.13;;;12.20;100.00
26043;BME280;13818;52.156;5.382;2023-03-23T05:30:47;99824.34;;;12.09;100.00
26043;BME280;13818;52.156;5.382;2023-03-23T05:33:14;99842.50;;;12.04;100.00
26043;BME280;13818;52.156;5.382;2023-03-23T05:35:42;99854.16;;;11.88;100.00
26043;BME280;13818;52.156;5.382;2023-03-23T05:38:09;99844.91;;;11.67;100.00
26043;BME280;13818;52.156;5.382;2023-03-23T05:40:35;99841.72;;;11.62;100.00
26043;BME280;13818;52.156;5.382;2023-03-23T05:43:02;99866.03;;;11.57;100.00
26043;BME280;13818;52.156;5.382;2023-03-23T05:45:30;99862.94;;;11.63;100.00
26043;BME280;13818;52.156;5.382;2023-03-23T05:47:56;99861.34;;;11.61;100.00
26043;BME280;13818;52.156;5.382;2023-03-23T05:50:23;99862.09;;;11.63;100.00
26043;BME280;13818;52.156;5.382;2023-03-23T05:52:51;99854.84;;;11.65;100.00
26043;BME280;13818;52.156;5.382;2023-03-23T05:55:17;99863.81;;;11.64;100.00
26043;BME280;13818;52.156;5.382;2023-03-23T05:57:44;99864.97;;;11.60;100.00
26043;BME280;13818;52.156;5.382;2023-03-23T06:00:12;99854.41;;;11.58;100.00
26043;BME280;13818;52.156;5.382;2023-03-23T06:02:40;99872.41;;;11.54;100.00
26043;BME280;13818;52.156;5.382;2023-03-23T06:05:09;99871.28;;;11.59;100.00
26043;BME280;13818;52.156;5.382;2023-03-23T06:07:36;99881.84;;;11.60;100.00
26043;BME280;13818;52.156;5.382;2023-03-23T06:10:07;99888.25;;;11.58;100.00
26043;BME280;13818;52.156;5.382;2023-03-23T06:12:34;99879.84;;;11.64;100.00
26043;BME280;13818;52.156;5.382;2023-03-23T06:15:00;99885.81;;;11.67;100.00
26043;BME280;13818;52.156;5.382;2023-03-23T06:17:27;99887.75;;;11.65;100.00
26043;BME280;13818;52.156;5.382;2023-03-23T06:19:55;99898.56;;;11.49;100.00
26043;BME280;13818;52.156;5.382;2023-03-23T06:22:21;99901.81;;;11.40;100.00
26043;BME280;13818;52.156;5.382;2023-03-23T06:24:48;99898.78;;;11.32;100.00
26043;BME280;13818;52.156;5.382;2023-03-23T06:27:16;99895.16;;;11.33;100.00
26043;BME280;13818;52.156;5.382;2023-03-23T06:29:43;99906.63;;;11.20;100.00
26043;BME280;13818;52.156;5.382;2023-03-23T06:32:11;99915.00;;;11.29;100.00
26043;BME280;13818;52.156;5.382;2023-03-23T06:34:38;99921.06;;;11.31;100.00
26043;BME280;13818;52.156;5.382;2023-03-23T06:37:05;99913.66;;;11.21;100.00
26043;BME280;13818;52.156;5.382;2023-03-23T06:39:32;99904.91;;;11.19;100.00
26043;BME280;13818;52.156;5.382;2023-03-23T06:41:59;99928.84;;;11.21;100.00
26043;BME280;13818;52.156;5.382;2023-03-23T06:44:26;99934.06;;;11.22;100.00
26043;BME280;13818;52.156;5.382;2023-03-23T06:46:53;99945.84;;;11.33;100.00
26043;BME280;13818;52.156;5.382;2023-03-23T06:49:20;99929.56;;;11.37;100.00
26043;BME280;13818;52.156;5.382;2023-03-23T06:51:47;99933.44;;;11.46;100.00
26043;BME280;13818;52.156;5.382;2023-03-23T06:54:13;99929.56;;;11.37;100.00
26043;BME280;13818;52.156;5.382;2023-03-23T06:56:40;99937.47;;;11.39;100.00
26043;BME280;13818;52.156;5.382;2023-03-23T06:59:07;99926.91;;;11.37;100.00
26043;BME280;13818;52.156;5.382;2023-03-23T07:01:35;99940.13;;;11.39;100.00
26043;BME280;13818;52.156;5.382;2023-03-23T07:04:03;99922.41;;;11.38;100.00
26043;BME280;13818;52.156;5.382;2023-03-23T07:06:30;99922.41;;;11.38;100.00
26043;BME280;13818;52.156;5.382;2023-03-23T07:08:57;99924.97;;;11.39;100.00
26043;BME280;13818;52.156;5.382;2023-03-23T07:11:24;99924.28;;;11.50;100.00
26043;BME280;13818;52.156;5.382;2023-03-23T07:13:50;99932.06;;;11.53;100.00
26043;BME280;13818;52.156;5.382;2023-03-23T07:16:17;99932.91;;;11.68;100.00
26043;BME280;13818;52.156;5.382;2023-03-23T07:18:45;99929.66;;;11.63;100.00
26043;BME280;13818;52.156;5.382;2023-03-23T07:21:11;99933.56;;;11.72;100.00
26043;BME280;13818;52.156;5.382;2023-03-23T07:23:38;99933.38;;;11.75;100.00
26043;BME280;13818;52.156;5.382;2023-03-23T07:26:06;99934.09;;;11.77;100.00
26043;BME280;13818;52.156;5.382;2023-03-23T07:28:33;99927.38;;;11.71;100.00
26043;BME280;13818;52.156;5.382;2023-03-23T07:31:00;99937.00;;;11.74;100.00
26043;BME280;13818;52.156;5.382;2023-03-23T07:33:28;99941.81;;;11.82;100.00
26043;BME280;13818;52.156;5.382;2023-03-23T07:35:58;99947.06;;;11.83;100.00
26043;BME280;13818;52.156;5.382;2023-03-23T07:38:24;99949.88;;;11.95;100.00
26043;BME280;13818;52.156;5.382;2023-03-23T07:40:52;99959.22;;;12.02;100.00
26043;BME280;13818;52.156;5.382;2023-03-23T07:43:19;99959.06;;;12.18;100.00
26043;BME280;13818;52.156;5.382;2023-03-23T07:45:46;99961.13;;;12.27;100.00
26043;BME280;13818;52.156;5.382;2023-03-23T07:48:12;99967.31;;;12.28;100.00
26043;BME280;13818;52.156;5.382;2023-03-23T07:50:39;99975.03;;;12.45;100.00
26043;BME280;13818;52.156;5.382;2023-03-23T07:53:07;99970.78;;;12.56;100.00
26043;BME280;13818;52.156;5.382;2023-03-23T07:55:33;99965.78;;;12.64;100.00
26043;BME280;13818;52.156;5.382;2023-03-23T07:58:00;99969.22;;;12.66;100.00
26043;BME280;13818;52.156;5.382;2023-03-23T08:00:28;99959.88;;;12.59;100.00
26043;BME280;13818;52.156;5.382;2023-03-23T08:02:56;99962.56;;;12.72;100.00
26043;BME280;13818;52.156;5.382;2023-03-23T08:05:24;99960.31;;;12.65;100.00
26043;BME280;13818;52.156;5.382;2023-03-23T08:07:52;99961.06;;;12.67;100.00
26043;BME280;13818;52.156;5.382;2023-03-23T08:10:22;99966.31;;;12.69;100.00
26043;BME280;13818;52.156;5.382;2023-03-23T08:12:51;99980.03;;;12.77;100.00
26043;BME280;13818;52.156;5.382;2023-03-23T08:15:18;99984.84;;;12.85;100.00
26043;BME280;13818;52.156;5.382;2023-03-23T08:17:47;99976.91;;;13.09;100.00
26043;BME280;13818;52.156;5.382;2023-03-23T08:20:13;99966.22;;;12.96;100.00
26043;BME280;13818;52.156;5.382;2023-03-23T08:22:42;99982.56;;;12.79;100.00
26043;BME280;13818;52.156;5.382;2023-03-23T08:25:12;99983.00;;;12.85;100.00
26043;BME280;13818;52.156;5.382;2023-03-23T08:27:40;99986.22;;;12.91;100.00
26043;BME280;13818;52.156;5.382;2023-03-23T08:30:09;99974.13;;;12.72;100.00
26043;BME280;13818;52.156;5.382;2023-03-23T08:32:36;99972.72;;;12.92;100.00
26043;BME280;13818;52.156;5.382;2023-03-23T08:35:03;99981.47;;;13.33;100.00
26043;BME280;13818;52.156;5.382;2023-03-23T08:37:30;99992.06;;;13.60;100.00
26043;BME280;13818;52.156;5.382;2023-03-23T08:39:57;99988.44;;;13.86;100.00
26043;BME280;13818;52.156;5.382;2023-03-23T08:42:24;99991.00;;;13.87;100.00
26043;BME280;13818;52.156;5.382;2023-03-23T08:44:52;99997.31;;;13.62;100.00
26043;BME280;13818;52.156;5.382;2023-03-23T08:47:19;99988.06;;;13.66;100.00
26043;BME280;13818;52.156;5.382;2023-03-23T08:49:45;99979.34;;;13.75;100.00
26043;BME280;13818;52.156;5.382;2023-03-23T08:52:12;99988.13;;;13.53;100.00
26043;BME280;13818;52.156;5.382;2023-03-23T08:54:40;99991.44;;;13.57;100.00
26043;BME280;13818;52.156;5.382;2023-03-23T08:57:12;100006.88;;;13.40;100.00
26043;BME280;13818;52.156;5.382;2023-03-23T08:59:39;100007.78;;;13.65;100.00
26043;BME280;13818;52.156;5.382;2023-03-23T09:02:08;100014.41;;;13.72;100.00
26043;BME280;13818;52.156;5.382;2023-03-23T09:04:37;100024.09;;;13.86;100.00
26043;BME280;13818;52.156;5.382;2023-03-23T09:07:03;100013.69;;;13.94;100.00
26043;BME280;13818;52.156;5.382;2023-03-23T09:09:30;100004.53;;;14.10;100.00
26043;BME280;13818;52.156;5.382;2023-03-23T09:11:57;99993.22;;;14.18;100.00
26043;BME280;13818;52.156;5.382;2023-03-23T09:14:24;100001.66;;;14.24;100.00
26043;BME280;13818;52.156;5.382;2023-03-23T09:16:50;100005.78;;;14.17;100.00
26043;BME280;13818;52.156;5.382;2023-03-23T09:19:18;100003.38;;;14.61;100.00
26043;BME280;13818;52.156;5.382;2023-03-23T09:21:45;100004.13;;;14.63;100.00
26043;BME280;13818;52.156;5.382;2023-03-23T09:24:12;100001.00;;;14.69;100.00
26043;BME280;13818;52.156;5.382;2023-03-23T09:26:38;100006.03;;;14.74;100.00
26043;BME280;13818;52.156;5.382;2023-03-23T09:29:05;100012.28;;;14.61;100.00
26043;BME280;13818;52.156;5.382;2023-03-23T09:31:31;100005.25;;;14.36;100.00
26043;BME280;13818;52.156;5.382;2023-03-23T09:33:58;100007.47;;;14.42;100.00
26043;BME280;13818;52.156;5.382;2023-03-23T09:36:27;100014.00;;;14.38;100.00
26043;BME280;13818;52.156;5.382;2023-03-23T09:38:57;100018.16;;;14.31;100.00
26043;BME280;13818;52.156;5.382;2023-03-23T09:41:49;100019.41;;;14.49;100.00
26043;BME280;13818;52.156;5.382;2023-03-23T09:44:24;100025.88;;;14.83;100.00
26043;BME280;13818;52.156;5.382;2023-03-23T09:46:58;100024.78;;;14.74;100.00
26043;BME280;13818;52.156;5.382;2023-03-23T09:49:30;100023.59;;;14.89;100.00
26043;BME280;13818;52.156;5.382;2023-03-23T09:52:03;100031.78;;;14.63;100.00
26043;BME280;13818;52.156;5.382;2023-03-23T09:54:36;100022.00;;;14.87;100.00
26043;BME280;13818;52.156;5.382;2023-03-23T09:57:03;100030.94;;;14.63;100.00
26043;BME280;13818;52.156;5.382;2023-03-23T09:59:34;100025.78;;;14.60;100.00
26043;BME280;13818;52.156;5.382;2023-03-23T10:02:11;100036.47;;;14.48;100.00
26043;BME280;13818;52.156;5.382;2023-03-23T10:04:43;100044.34;;;14.63;100.00
26043;BME280;13818;52.156;5.382;2023-03-23T10:07:14;100053.34;;;14.62;100.00
26043;BME280;13818;52.156;5.382;2023-03-23T10:09:42;100056.44;;;14.44;100.00
26043;BME280;13818;52.156;5.382;2023-03-23T10:12:24;100051.13;;;14.56;100.00
26043;BME280;13818;52.156;5.382;2023-03-23T10:15:14;100057.19;;;14.46;100.00
26043;BME280;13818;52.156;5.382;2023-03-23T10:17:46;100053.06;;;14.42;100.00
26043;BME280;13818;52.156;5.382;2023-03-23T10:20:23;100057.97;;;14.84;100.00
26043;BME280;13818;52.156;5.382;2023-03-23T10:22:56;100053.44;;;14.73;100.00
26043;BME280;13818;52.156;5.382;2023-03-23T10:25:28;100057.22;;;14.82;100.00
26043;BME280;13818;52.156;5.382;2023-03-23T10:27:59;100065.50;;;14.55;100.00
26043;BME280;13818;52.156;5.382;2023-03-23T10:30:31;100059.69;;;14.61;100.00
26043;BME280;13818;52.156;5.382;2023-03-23T10:33:02;100058.34;;;14.55;100.00
26043;BME280;13818;52.156;5.382;2023-03-23T10:35:34;100057.00;;;14.61;100.00
26043;BME280;13818;52.156;5.382;2023-03-23T10:38:06;100067.50;;;14.64;100.00
26043;BME280;13818;52.156;5.382;2023-03-23T10:40:43;100065.91;;;14.61;100.00
26043;BME280;13818;52.156;5.382;2023-03-23T10:43:13;100073.00;;;14.62;100.00
26043;BME280;13818;52.156;5.382;2023-03-23T10:45:42;100065.72;;;14.64;100.00
26043;BME280;13818;52.156;5.382;2023-03-23T10:48:14;100070.78;;;14.80;100.00
26043;BME280;13818;52.156;5.382;2023-03-23T10:50:44;100075.97;;;14.71;100.00
26043;BME280;13818;52.156;5.382;2023-03-23T10:53:16;100067.22;;;14.56;100.00
26043;BME280;13818;52.156;5.382;2023-03-23T10:55:44;100067.41;;;14.66;100.00
26043;BME280;13818;52.156;5.382;2023-03-23T10:58:21;100068.78;;;14.71;100.00
26043;BME280;13818;52.156;5.382;2023-03-23T11:00:49;100066.34;;;14.68;100.00
26043;BME280;13818;52.156;5.382;2023-03-23T11:03:25;100080.25;;;14.73;100.00
26043;BME280;13818;52.156;5.382;2023-03-23T11:05:56;100071.75;;;14.79;100.00
26043;BME280;13818;52.156;5.382;2023-03-23T11:08:25;100079.44;;;14.84;100.00
26043;BME280;13818;52.156;5.382;2023-03-23T11:10:55;100083.22;;;14.82;100.00
26043;BME280;13818;52.156;5.382;2023-03-23T11:13:28;100087.53;;;14.71;100.00
26043;BME280;13818;52.156;5.382;2023-03-23T11:15:55;100090.97;;;14.73;100.00
26043;BME280;13818;52.156;5.382;2023-03-23T11:18:24;100083.59;;;14.64;100.00
26043;BME280;13818;52.156;5.382;2023-03-23T11:20:54;100082.47;;;14.55;100.00
26043;BME280;13818;52.156;5.382;2023-03-23T11:23:26;100082.34;;;14.57;100.00
26043;BME280;13818;52.156;5.382;2023-03-23T11:26:00;100080.75;;;14.54;100.00
26043;BME280;13818;52.156;5.382;2023-03-23T11:28:32;100088.53;;;14.70;100.00
26043;BME280;13818;52.156;5.382;2023-03-23T11:31:02;100076.81;;;14.71;100.00
26043;BME280;13818;52.156;5.382;2023-03-23T11:33:35;100075.19;;;14.93;100.00
26043;BME280;13818;52.156;5.382;2023-03-23T11:36:08;100073.44;;;14.80;100.00
26043;BME280;13818;52.156;5.382;2023-03-23T11:38:36;100074.84;;;15.09;100.00
26043;BME280;13818;52.156;5.382;2023-03-23T11:41:09;100079.94;;;14.89;100.00
26043;BME280;13818;52.156;5.382;2023-03-23T11:43:45;100075.47;;;15.12;100.00
26043;BME280;13818;52.156;5.382;2023-03-23T11:46:23;100078.44;;;15.21;100.00
26043;BME280;13818;52.156;5.382;2023-03-23T11:48:57;100074.91;;;15.32;100.00
26043;BME280;13818;52.156;5.382;2023-03-23T11:51:31;100071.25;;;15.44;100.00
26043;BME280;13818;52.156;5.382;2023-03-23T11:54:08;100070.00;;;15.37;100.00
26043;BME280;13818;52.156;5.382;2023-03-23T11:56:38;100075.91;;;15.42;100.00
26043;BME280;13818;52.156;5.382;2023-03-23T11:59:10;100081.28;;;15.53;100.00
26043;BME280;13818;52.156;5.382;2023-03-23T12:01:51;100078.69;;;15.40;100.00
26043;BME280;13818;52.156;5.382;2023-03-23T12:04:40;100094.31;;;15.46;100.00
26043;BME280;13818;52.156;5.382;2023-03-23T12:07:19;100094.31;;;15.58;100.00
26043;BME280;13818;52.156;5.382;2023-03-23T12:09:58;100090.94;;;15.67;100.00
26043;BME280;13818;52.156;5.382;2023-03-23T12:12:37;100085.69;;;15.88;100.00
26043;BME280;13818;52.156;5.382;2023-03-23T12:15:14;100090.44;;;16.07;100.00
26043;BME280;13818;52.156;5.382;2023-03-23T12:17:50;100087.25;;;15.91;100.00
26043;BME280;13818;52.156;5.382;2023-03-23T12:20:25;100091.44;;;15.95;100.00
26043;BME280;13818;52.156;5.382;2023-03-23T12:23:02;100072.97;;;15.79;100.00
26043;BME280;13818;52.156;5.382;2023-03-23T12:25:49;100076.75;;;15.54;100.00
26043;BME280;13818;52.156;5.382;2023-03-23T12:28:29;100077.59;;;15.66;100.00
26043;BME280;13818;52.156;5.382;2023-03-23T12:31:03;100073.94;;;15.55;100.00
26043;BME280;13818;52.156;5.382;2023-03-23T12:33:43;100065.38;;;15.39;100.00
26043;BME280;13818;52.156;5.382;2023-03-23T12:36:22;100077.72;;;15.53;100.00
26043;BME280;13818;52.156;5.382;2023-03-23T12:39:02;100071.38;;;15.65;100.00
26043;BME280;13818;52.156;5.382;2023-03-23T12:41:37;100058.06;;;15.41;100.00
26043;BME280;13818;52.156;5.382;2023-03-23T12:44:07;100073.75;;;15.11;100.00
26043;BME280;13818;52.156;5.382;2023-03-23T12:46:59;100071.34;;;15.20;100.00
26043;BME280;13818;52.156;5.382;2023-03-23T12:49:34;100064.75;;;15.24;100.00
26043;BME280;13818;52.156;5.382;2023-03-23T12:52:06;100053.91;;;15.37;100.00
26043;BME280;13818;52.156;5.382;2023-03-23T12:54:40;100057.94;;;15.54;100.00
26043;BME280;13818;52.156;5.382;2023-03-23T12:57:20;100059.66;;;15.66;100.00
26043;BME280;13818;52.156;5.382;2023-03-23T13:00:05;100047.56;;;15.49;100.00
26043;BME280;13818;52.156;5.382;2023-03-23T13:02:40;100036.47;;;15.54;100.00